Time;durP1;ratioP1;P1;durP2;ratioP2;P2;SDS_P1;SDS_P2;PMS_P1;PMS_P2;Temp;Humidity;BMP_temperature;BMP_pressure;BME280_temperature;BME280_humidity;BME280_pressure;Samples;Min_cycle;Max_cycle;Signal;HPM_P1;HPM_P2
2021/01/25 00:02:04;;;;;;;7.95;4.57;;;;;;;-2.34;75.25;95073.00;4992903;28;20812;-61
2021/01/25 00:04:30;;;;;;;10.57;4.75;;;;;;;-2.37;75.39;95067.50;5007421;28;20383;-64
2021/01/25 00:06:55;;;;;;;7.13;4.45;;;;;;;-2.48;74.96;95069.78;5011598;28;20045;-61
2021/01/25 00:09:21;;;;;;;6.60;4.57;;;;;;;-2.74;74.32;95064.50;5014524;28;20060;-60
2021/01/25 00:11:46;;;;;;;7.95;4.60;;;;;;;-3.04;74.30;95064.47;5019986;28;20073;-57
2021/01/25 00:14:11;;;;;;;9.27;4.93;;;;;;;-3.24;77.12;95054.41;5012122;28;20041;-61
2021/01/25 00:16:37;;;;;;;6.30;4.05;;;;;;;-3.25;74.68;95045.59;5009698;28;20864;-59
2021/01/25 00:19:02;;;;;;;8.23;4.38;;;;;;;-3.20;74.16;95048.09;5006918;28;20045;-61
2021/01/25 00:21:28;;;;;;;6.78;3.63;;;;;;;-3.13;73.49;95043.06;5006983;28;20054;-59
2021/01/25 00:23:53;;;;;;;9.45;3.63;;;;;;;-3.07;73.30;95047.13;5000700;28;20046;-59
2021/01/25 00:26:19;;;;;;;15.55;4.13;;;;;;;-3.09;73.11;95032.50;4994793;28;20046;-59
2021/01/25 00:28:44;;;;;;;8.77;3.90;;;;;;;-3.08;73.54;95032.16;4999489;28;20046;-58
2021/01/25 00:31:10;;;;;;;4.80;3.42;;;;;;;-2.97;72.38;95029.13;5000937;28;20042;-61
2021/01/25 00:33:35;;;;;;;6.10;4.00;;;;;;;-2.99;72.33;95015.28;5009567;28;20615;-59
2021/01/25 00:36:00;;;;;;;8.88;3.80;;;;;;;-2.92;72.16;95018.22;5014034;28;20073;-58
2021/01/25 00:38:26;;;;;;;5.85;4.10;;;;;;;-2.94;71.84;95015.88;5015028;28;20041;-58
2021/01/25 00:40:51;;;;;;;6.13;4.07;;;;;;;-2.92;71.67;95016.38;5011299;28;20262;-62
2021/01/25 00:43:17;;;;;;;5.65;3.50;;;;;;;-2.79;72.13;95016.44;4992023;28;20411;-57
2021/01/25 00:45:43;;;;;;;5.97;3.83;;;;;;;-2.74;71.29;95018.94;5014966;28;20045;-58
2021/01/25 00:48:08;;;;;;;5.90;3.63;;;;;;;-2.80;71.67;95015.66;4983199;28;20046;-62
2021/01/25 00:50:34;;;;;;;7.13;3.38;;;;;;;-2.80;70.95;95015.66;4989389;28;20073;-58
2021/01/25 00:52:59;;;;;;;6.10;2.97;;;;;;;-2.75;70.81;95012.81;4999383;28;20068;-60
2021/01/25 00:55:25;;;;;;;5.53;2.92;;;;;;;-2.64;69.11;95015.13;4997411;28;20046;-61
2021/01/25 00:57:50;;;;;;;4.68;3.13;;;;;;;-2.58;68.36;95003.88;4985690;28;20070;-60
2021/01/25 01:00:16;;;;;;;4.15;3.25;;;;;;;-2.52;68.22;95007.16;4980605;28;20064;-62
2021/01/25 01:02:41;;;;;;;4.10;2.85;;;;;;;-2.50;68.46;95011.13;5003405;28;20049;-62
2021/01/25 01:05:08;;;;;;;4.88;2.90;;;;;;;-2.43;69.23;95023.22;4997666;28;20048;-64
2021/01/25 01:07:34;;;;;;;5.60;3.30;;;;;;;-2.35;68.66;95027.75;4985207;28;20368;-57
2021/01/25 01:10:00;;;;;;;3.78;2.55;;;;;;;-2.21;68.71;95046.28;5003474;28;20067;-57
2021/01/25 01:12:26;;;;;;;3.60;2.55;;;;;;;-2.13;69.39;95050.81;4995143;28;20042;-60
2021/01/25 01:14:51;;;;;;;5.78;3.00;;;;;;;-2.15;69.54;95053.03;5003057;28;20042;-61
2021/01/25 01:17:17;;;;;;;4.97;3.22;;;;;;;-2.15;69.79;95051.13;4979681;28;20376;-59
2021/01/25 01:19:42;;;;;;;4.28;2.78;;;;;;;-2.18;70.77;95042.94;4982638;28;20069;-58
2021/01/25 01:22:07;;;;;;;3.95;2.58;;;;;;;-2.17;71.20;95047.19;4997864;28;21017;-62
2021/01/25 01:24:33;;;;;;;4.03;2.90;;;;;;;-2.20;71.13;95053.22;5002458;28;20042;-58
2021/01/25 01:26:58;;;;;;;8.07;2.60;;;;;;;-2.00;71.22;95052.47;5003163;28;20049;-59
2021/01/25 01:29:23;;;;;;;3.70;2.80;;;;;;;-1.78;70.94;95053.25;4994190;28;20515;-59
2021/01/25 01:31:49;;;;;;;3.72;2.53;;;;;;;-1.64;69.70;95053.78;5002763;28;20121;-57
2021/01/25 01:34:14;;;;;;;5.25;2.80;;;;;;;-1.57;69.44;95053.22;5001261;28;20038;-59
2021/01/25 01:36:40;;;;;;;4.75;2.22;;;;;;;-1.59;69.50;95058.94;5001309;28;20049;-61
2021/01/25 01:39:05;;;;;;;4.45;3.00;;;;;;;-1.52;68.97;95058.41;4999285;28;20491;-62
2021/01/25 01:41:34;;;;;;;4.57;3.17;;;;;;;-1.32;68.81;95064.88;5015149;28;20072;-60
2021/01/25 01:44:00;;;;;;;7.25;3.75;;;;;;;-1.14;69.88;95062.78;5012353;28;20046;-59
2021/01/25 01:46:26;;;;;;;8.05;4.68;;;;;;;-1.17;70.06;95063.44;5011874;28;20062;-60
2021/01/25 01:48:51;;;;;;;11.48;5.07;;;;;;;-1.30;71.63;95069.91;4998264;28;20077;-63
2021/01/25 01:51:16;;;;;;;11.15;5.95;;;;;;;-1.35;72.40;95076.28;5010602;28;20065;-62
2021/01/25 01:53:42;;;;;;;10.63;5.72;;;;;;;-1.45;73.20;95074.78;5007839;28;20482;-60
2021/01/25 01:56:07;;;;;;;11.05;5.75;;;;;;;-1.58;75.30;95076.63;5015524;28;20042;-64
2021/01/25 01:58:33;;;;;;;14.00;5.75;;;;;;;-1.70;76.01;95078.47;5019490;28;20076;-63
2021/01/25 02:00:58;;;;;;;12.57;6.63;;;;;;;-1.57;77.15;95069.34;5029836;28;20049;-64
2021/01/25 02:03:23;;;;;;;9.30;5.93;;;;;;;-1.56;78.05;95066.34;5017217;28;20049;-62
2021/01/25 02:05:51;;;;;;;12.98;5.40;;;;;;;-1.58;78.34;95067.78;5006038;28;20038;-60
2021/01/25 02:08:18;;;;;;;9.05;5.40;;;;;;;-2.43;82.46;95066.91;4997153;28;20046;-57
2021/01/25 02:10:44;;;;;;;12.60;6.78;;;;;;;-3.05;86.14;95062.09;4984811;28;20042;-57
2021/01/25 02:13:10;;;;;;;11.18;6.05;;;;;;;-3.40;88.39;95056.78;4978286;28;20121;-59
2021/01/25 02:15:35;;;;;;;11.05;6.75;;;;;;;-3.59;90.07;95057.13;4984219;28;20038;-61
2021/01/25 02:18:01;;;;;;;14.10;7.72;;;;;;;-3.78;91.80;95049.44;4998102;28;20446;-58
2021/01/25 02:20:44;;;;;;;14.43;7.53;;;;;;;-3.83;92.52;95042.34;4996957;28;20069;-59
2021/01/25 02:23:27;;;;;;;17.27;7.68;;;;;;;-3.80;93.65;95043.59;4996246;28;20537;-65
2021/01/25 02:26:07;;;;;;;12.95;6.88;;;;;;;-3.84;94.06;95036.19;5002349;28;20534;-59
2021/01/25 02:28:35;;;;;;;13.80;8.43;;;;;;;-3.84;94.53;95036.19;5007509;28;20048;-62
2021/01/25 02:31:03;;;;;;;16.05;8.30;;;;;;;-3.87;95.11;95031.50;5013261;28;20041;-60
2021/01/25 02:33:32;;;;;;;12.65;7.18;;;;;;;-3.81;94.89;95028.69;5002675;28;20483;-59
2021/01/25 02:35:59;;;;;;;8.75;6.13;;;;;;;-3.68;94.83;95033.84;5008342;28;20045;-63
2021/01/25 02:38:26;;;;;;;11.15;6.00;;;;;;;-3.68;94.88;95023.13;4997643;28;20434;-59
2021/01/25 02:40:52;;;;;;;8.75;6.03;;;;;;;-3.70;94.63;95027.25;5007975;28;20037;-59
2021/01/25 02:43:19;;;;;;;9.57;5.93;;;;;;;-3.72;95.11;95016.84;4994833;28;20044;-60
2021/01/25 02:45:46;;;;;;;8.30;4.10;;;;;;;-3.61;95.22;95021.88;5013544;28;20033;-61
2021/01/25 02:48:11;;;;;;;8.30;4.72;;;;;;;-3.58;95.48;95030.06;5007506;28;20514;-61
2021/01/25 02:50:36;;;;;;;6.22;4.18;;;;;;;-3.54;95.33;95025.66;5012892;28;20061;-59
2021/01/25 02:53:02;;;;;;;6.00;4.55;;;;;;;-3.57;94.96;95025.50;5002157;28;20049;-63
2021/01/25 02:55:28;;;;;;;6.50;4.20;;;;;;;-3.48;94.77;95019.00;5014540;28;20038;-61
2021/01/25 02:57:55;;;;;;;6.97;4.15;;;;;;;-3.47;95.03;95003.75;5006017;28;20042;-55
2021/01/25 03:00:21;;;;;;;6.20;4.13;;;;;;;-3.47;95.03;95004.53;4997217;28;20054;-60
2021/01/25 03:02:47;;;;;;;5.15;3.90;;;;;;;-3.26;94.85;95014.56;5002458;28;20383;-58
2021/01/25 03:05:12;;;;;;;8.18;4.55;;;;;;;-3.20;94.85;95017.88;4985916;28;20102;-61
2021/01/25 03:07:38;;;;;;;7.05;4.32;;;;;;;-3.16;94.71;95019.56;4989470;28;20029;-59
2021/01/25 03:10:04;;;;;;;7.38;4.20;;;;;;;-3.28;94.52;95008.75;5003004;28;20132;-63
2021/01/25 03:12:30;;;;;;;7.20;3.90;;;;;;;-3.22;94.86;95004.81;4999954;28;20045;-58
2021/01/25 03:14:56;;;;;;;5.38;4.10;;;;;;;-3.15;94.00;95015.00;4998814;28;20038;-59
2021/01/25 03:17:21;;;;;;;5.68;4.28;;;;;;;-3.27;94.17;95013.00;5000394;28;20594;-57
2021/01/25 03:19:47;;;;;;;5.38;3.78;;;;;;;-3.25;94.18;95013.47;5020033;28;20075;-60
2021/01/25 03:22:13;;;;;;;8.32;4.75;;;;;;;-3.16;94.49;95021.47;5015067;28;20091;-61
2021/01/25 03:24:38;;;;;;;6.53;4.90;;;;;;;-3.02;94.43;95023.97;5010711;28;20095;-59
2021/01/25 03:27:04;;;;;;;6.15;4.18;;;;;;;-2.79;94.11;95022.63;5007954;28;20044;-62
2021/01/25 03:29:29;;;;;;;6.05;4.20;;;;;;;-2.63;94.08;95028.22;5001581;28;20058;-60
2021/01/25 03:31:54;;;;;;;7.05;4.47;;;;;;;-2.63;93.48;95030.91;5005569;28;20034;-59
2021/01/25 03:34:20;;;;;;;5.22;3.50;;;;;;;-2.61;92.68;95017.16;5003304;28;20076;-59
2021/01/25 03:36:46;;;;;;;5.22;3.92;;;;;;;-2.70;92.26;95019.91;5000004;28;20073;-59
2021/01/25 03:39:11;;;;;;;6.03;4.45;;;;;;;-2.89;92.75;95022.97;4993264;28;20030;-60
2021/01/25 03:41:37;;;;;;;5.40;3.95;;;;;;;-3.07;93.98;95020.34;5000489;28;20086;-59
2021/01/25 03:44:02;;;;;;;8.07;4.25;;;;;;;-2.94;93.97;95023.13;4981121;28;20081;-60
2021/01/25 03:46:28;;;;;;;6.70;4.60;;;;;;;-2.70;93.96;95018.00;5001847;28;20058;-58
2021/01/25 03:48:53;;;;;;;7.28;4.22;;;;;;;-2.83;92.33;95020.88;4978368;28;20033;-58
2021/01/25 03:51:19;;;;;;;6.43;4.43;;;;;;;-2.95;93.48;95024.25;5014806;28;20132;-59
2021/01/25 03:53:46;;;;;;;7.53;4.13;;;;;;;-2.70;93.72;95022.59;5017834;28;20375;-58
2021/01/25 03:56:11;;;;;;;7.60;5.25;;;;;;;-2.78;93.12;95010.00;5010366;28;20414;-61
2021/01/25 03:58:37;;;;;;;7.40;4.47;;;;;;;-2.82;93.06;95014.44;5008060;28;20053;-57
2021/01/25 04:01:02;;;;;;;8.35;4.55;;;;;;;-2.82;93.65;95001.03;5004058;28;20449;-63
2021/01/25 04:03:28;;;;;;;6.25;4.47;;;;;;;-2.66;93.44;95018.13;5010285;28;20100;-61
2021/01/25 04:05:53;;;;;;;6.70;4.45;;;;;;;-2.53;93.95;95027.06;5014710;28;20046;-58
2021/01/25 04:08:19;;;;;;;6.60;4.93;;;;;;;-2.37;93.60;95008.53;5006209;28;20049;-60
2021/01/25 04:10:44;;;;;;;6.20;4.72;;;;;;;-2.18;92.81;95030.34;5003914;28;20041;-60
2021/01/25 04:13:10;;;;;;;7.10;4.53;;;;;;;-2.00;91.60;95027.50;4994992;28;20042;-60
2021/01/25 04:15:35;;;;;;;8.40;4.13;;;;;;;-2.00;90.29;95017.59;5007111;28;20522;-56
2021/01/25 04:18:01;;;;;;;5.88;4.47;;;;;;;-2.38;91.44;95031.06;5004105;28;20061;-58
2021/01/25 04:20:26;;;;;;;6.53;4.95;;;;;;;-2.19;91.37;95027.97;4981157;28;20139;-60
2021/01/25 04:22:52;;;;;;;7.03;4.22;;;;;;;-1.97;90.58;95033.00;4997443;28;20046;-58
2021/01/25 04:25:17;;;;;;;7.70;4.20;;;;;;;-2.03;90.24;95031.66;5000599;28;20069;-56
2021/01/25 04:27:43;;;;;;;6.35;4.47;;;;;;;-2.13;90.26;95030.13;5025434;28;20040;-56
2021/01/25 04:30:10;;;;;;;7.88;4.95;;;;;;;-2.54;92.17;95034.31;5001554;28;20080;-61
2021/01/25 04:32:37;;;;;;;7.47;5.70;;;;;;;-2.53;92.90;95035.88;5016059;28;20044;-60
2021/01/25 04:35:09;;;;;;;8.02;4.50;;;;;;;-2.34;93.18;95042.72;5010091;28;20037;-61
2021/01/25 04:37:34;;;;;;;5.78;4.47;;;;;;;-2.15;92.83;95053.03;5022887;28;20037;-59
2021/01/25 04:40:00;;;;;;;10.55;5.38;;;;;;;-2.02;92.13;95040.47;5012944;28;20040;-60
2021/01/25 04:42:27;;;;;;;8.60;4.72;;;;;;;-2.51;92.83;95039.00;4998865;28;20066;-59
2021/01/25 04:44:53;;;;;;;7.15;4.90;;;;;;;-2.39;93.23;95051.75;5007988;28;20076;-60
2021/01/25 04:47:21;;;;;;;10.05;4.95;;;;;;;-2.24;93.56;95036.22;5009244;28;20037;-57
2021/01/25 04:49:50;;;;;;;9.30;5.18;;;;;;;-2.34;93.25;95045.41;5017150;28;20054;-62
2021/01/25 04:52:15;;;;;;;8.60;5.00;;;;;;;-2.09;93.13;95045.56;5004228;28;20574;-59
2021/01/25 04:54:41;;;;;;;7.10;5.00;;;;;;;-2.08;92.64;95039.88;5015784;28;20129;-55
2021/01/25 04:57:09;;;;;;;13.70;5.90;;;;;;;-1.99;92.77;95043.28;4982900;28;20050;-61
2021/01/25 04:59:36;;;;;;;10.68;4.85;;;;;;;-1.81;92.63;95045.84;5005706;28;20041;-59
2021/01/25 05:02:01;;;;;;;6.57;4.70;;;;;;;-1.67;92.16;95032.19;5008823;28;20056;-60
2021/01/25 05:04:26;;;;;;;5.25;3.60;;;;;;;-1.37;89.84;95043.56;5004904;28;20041;-59
2021/01/25 05:06:52;;;;;;;5.80;3.17;;;;;;;-1.42;89.52;95044.59;4988749;28;20049;-59
2021/01/25 05:09:17;;;;;;;3.72;2.55;;;;;;;-1.48;89.42;95043.19;5004527;28;20111;-57
2021/01/25 05:11:43;;;;;;;3.28;2.22;;;;;;;-1.39;89.73;95053.88;5006532;28;20515;-60
2021/01/25 05:14:08;;;;;;;5.93;2.40;;;;;;;-1.44;89.66;95046.81;4999834;28;20048;-58
2021/01/25 05:16:33;;;;;;;9.48;2.53;;;;;;;-1.36;89.47;95051.31;5003739;28;20806;-61
2021/01/25 05:19:02;;;;;;;3.63;2.72;;;;;;;-1.27;89.28;95048.53;4998848;28;20046;-59
2021/01/25 05:21:48;;;;;;;4.00;2.45;;;;;;;-1.19;88.50;95057.63;4985065;28;20402;-59
2021/01/25 05:24:15;;;;;;;3.30;2.25;;;;;;;-1.21;88.98;95059.88;5009140;28;20520;-63
2021/01/25 05:26:54;;;;;;;3.78;2.63;;;;;;;-1.44;88.64;95057.56;5028083;28;20524;-62
2021/01/25 05:29:28;;;;;;;3.65;2.72;;;;;;;-1.56;89.76;95054.81;5011327;28;20189;-62
2021/01/25 05:31:55;;;;;;;4.07;3.17;;;;;;;-1.58;89.62;95068.56;4997397;28;20179;-58
2021/01/25 05:34:21;;;;;;;5.22;3.40;;;;;;;-1.73;90.33;95064.59;4982209;28;20595;-57
2021/01/25 05:36:47;;;;;;;4.75;3.15;;;;;;;-1.82;91.25;95066.56;5010323;28;20071;-57
2021/01/25 05:39:19;;;;;;;4.10;3.20;;;;;;;-1.77;91.09;95066.34;4998408;28;20060;-58
2021/01/25 05:41:55;;;;;;;5.10;3.10;;;;;;;-1.81;91.19;95067.31;5004215;28;20045;-59
2021/01/25 05:44:21;;;;;;;4.20;3.13;;;;;;;-1.80;91.13;95075.06;4998893;28;20042;-60
2021/01/25 05:46:47;;;;;;;5.13;3.45;;;;;;;-1.77;91.18;95071.69;5013095;28;20044;-57
2021/01/25 05:49:13;;;;;;;7.25;3.70;;;;;;;-1.78;91.35;95066.69;5000475;28;20472;-59
2021/01/25 05:51:39;;;;;;;10.55;4.20;;;;;;;-1.82;91.34;95063.06;5002291;28;20072;-59
2021/01/25 05:54:05;;;;;;;4.82;3.55;;;;;;;-1.81;91.86;95067.31;4993965;28;20060;-63
2021/01/25 05:56:30;;;;;;;5.80;4.32;;;;;;;-1.82;91.74;95073.78;5010290;28;20053;-60
2021/01/25 05:58:57;;;;;;;4.68;3.60;;;;;;;-1.67;91.97;95073.22;5002323;28;20046;-59
2021/01/25 06:01:23;;;;;;;6.10;3.63;;;;;;;-1.65;91.09;95075.59;5000797;28;20100;-60
2021/01/25 06:03:49;;;;;;;8.13;4.00;;;;;;;-1.40;91.59;95076.47;5012649;28;20048;-59
2021/01/25 06:06:26;;;;;;;4.18;2.92;;;;;;;-1.41;90.90;95080.28;5015848;28;20037;-60
2021/01/25 06:09:17;;;;;;;8.45;3.72;;;;;;;-1.30;90.93;95077.97;5017657;28;20219;-62
2021/01/25 06:11:45;;;;;;;5.65;3.22;;;;;;;-1.21;90.51;95086.72;5003059;28;20045;-59
2021/01/25 06:14:21;;;;;;;6.05;3.30;;;;;;;-1.16;90.32;95087.31;4997587;28;20037;-62
2021/01/25 06:16:49;;;;;;;7.75;3.58;;;;;;;-1.10;89.43;95090.56;5005091;28;20045;-60
2021/01/25 06:19:22;;;;;;;11.85;3.90;;;;;;;-1.16;89.31;95091.91;5002826;28;20038;-59
2021/01/25 06:21:48;;;;;;;4.13;2.88;;;;;;;-1.10;89.70;95095.94;5011143;28;20044;-61
2021/01/25 06:24:15;;;;;;;4.30;2.63;;;;;;;-1.02;89.98;95094.31;5013899;28;20060;-57
2021/01/25 06:26:40;;;;;;;3.28;2.63;;;;;;;-0.74;88.90;95081.03;5021355;28;20037;-61
2021/01/25 06:29:08;;;;;;;3.13;2.38;;;;;;;-0.57;88.31;95088.13;5002967;28;20516;-59
2021/01/25 06:31:38;;;;;;;3.42;2.45;;;;;;;-0.55;88.23;95082.44;4986101;28;20418;-59
2021/01/25 06:34:06;;;;;;;5.40;2.50;;;;;;;-0.40;88.27;95089.81;4999702;28;20045;-62
2021/01/25 06:36:33;;;;;;;5.40;2.15;;;;;;;-0.25;87.47;95091.09;4985863;28;20606;-59
2021/01/25 06:39:01;;;;;;;3.30;2.20;;;;;;;-0.30;87.51;95102.06;4989801;28;20065;-59
2021/01/25 06:41:38;;;;;;;6.72;3.28;;;;;;;-0.27;87.54;95104.88;4995098;28;20048;-59
2021/01/25 06:44:04;;;;;;;2.90;2.33;;;;;;;-0.24;88.25;95106.88;4997290;28;20372;-64
2021/01/25 06:46:33;;;;;;;4.53;2.45;;;;;;;-0.22;88.00;95103.84;5010500;28;20042;-60
2021/01/25 06:48:59;;;;;;;3.38;2.45;;;;;;;-0.29;89.11;95103.63;5010229;28;20061;-60
2021/01/25 06:51:25;;;;;;;3.90;2.55;;;;;;;-0.29;89.39;95107.13;5014834;28;20065;-62
2021/01/25 06:53:52;;;;;;;3.53;2.80;;;;;;;-0.28;89.22;95105.19;5004474;28;20047;-59
2021/01/25 06:56:18;;;;;;;3.88;2.60;;;;;;;-0.27;89.48;95104.88;5009457;28;20048;-58
2021/01/25 06:58:48;;;;;;;4.07;2.90;;;;;;;-0.18;89.34;95112.84;5013047;28;20037;-59
2021/01/25 07:01:18;;;;;;;3.30;2.83;;;;;;;-0.20;89.84;95117.75;4999163;28;20042;-58
2021/01/25 07:03:50;;;;;;;3.00;2.70;;;;;;;-0.21;90.15;95114.28;5001507;28;20041;-59
2021/01/25 07:06:16;;;;;;;4.57;3.20;;;;;;;-0.36;90.90;95125.72;4982242;28;20041;-58
2021/01/25 07:08:52;;;;;;;4.90;3.70;;;;;;;-0.33;91.08;95125.03;5003974;28;20048;-60
2021/01/25 07:11:20;;;;;;;5.57;3.83;;;;;;;-0.20;90.87;95126.63;4977794;28;20042;-57
2021/01/25 07:13:46;;;;;;;4.32;3.00;;;;;;;-0.17;90.77;95125.16;5027290;28;20045;-61
2021/01/25 07:16:12;;;;;;;4.53;3.40;;;;;;;-0.28;91.35;95130.19;5007935;28;20042;-58
2021/01/25 07:18:41;;;;;;;5.10;2.88;;;;;;;-0.22;90.24;95126.19;5011292;28;20047;-63
2021/01/25 07:21:07;;;;;;;4.25;3.20;;;;;;;-0.22;91.10;95145.00;4996472;28;20038;-60
2021/01/25 07:23:33;;;;;;;4.00;3.55;;;;;;;-0.20;91.44;95145.47;4999379;28;20069;-60
2021/01/25 07:26:00;;;;;;;6.90;3.38;;;;;;;-0.27;91.61;95150.59;5006587;28;20038;-59
2021/01/25 07:28:28;;;;;;;5.40;3.55;;;;;;;-0.30;91.75;95153.19;5010124;28;20049;-62
2021/01/25 07:30:54;;;;;;;5.90;3.40;;;;;;;-0.34;91.47;95150.38;5006798;28;20037;-61
2021/01/25 07:33:20;;;;;;;3.97;2.83;;;;;;;-0.28;91.20;95159.78;4994790;28;20042;-61
2021/01/25 07:35:46;;;;;;;5.07;3.53;;;;;;;-0.19;90.43;95157.00;5005935;28;20085;-61
2021/01/25 07:38:12;;;;;;;4.35;2.88;;;;;;;-0.20;90.77;95155.41;4994367;28;20682;-61
2021/01/25 07:40:37;;;;;;;4.55;3.20;;;;;;;-0.23;89.49;95162.25;4998407;28;20051;-63
2021/01/25 07:43:04;;;;;;;4.78;3.25;;;;;;;-0.23;89.44;95174.94;5000215;28;20047;-64
2021/01/25 07:45:31;;;;;;;5.75;3.38;;;;;;;-0.31;89.45;95171.22;4998828;28;20049;-61
2021/01/25 07:47:56;;;;;;;4.35;3.17;;;;;;;-0.38;89.56;95168.28;4987096;28;20121;-63
2021/01/25 07:50:22;;;;;;;5.15;3.42;;;;;;;-0.33;89.84;95180.75;4998492;28;20995;-61
2021/01/25 07:52:58;;;;;;;5.03;3.40;;;;;;;-0.33;89.09;95181.53;5018425;28;20049;-63
2021/01/25 07:55:23;;;;;;;8.13;3.05;;;;;;;-0.41;89.35;95172.44;5008163;28;20685;-58
2021/01/25 07:57:49;;;;;;;4.78;2.90;;;;;;;-0.30;89.55;95177.41;4978713;28;20065;-59
2021/01/25 08:00:23;;;;;;;4.93;3.58;;;;;;;-0.45;89.90;95173.41;4986748;28;20042;-62
2021/01/25 08:02:55;;;;;;;4.95;3.28;;;;;;;-0.44;90.21;95197.31;4994332;28;20550;-58
2021/01/25 08:05:23;;;;;;;5.82;3.30;;;;;;;-0.43;90.71;95190.81;4999226;28;20050;-58
2021/01/25 08:07:50;;;;;;;4.05;3.30;;;;;;;-0.47;90.52;95195.28;5012784;28;20041;-58
2021/01/25 08:10:16;;;;;;;4.65;2.90;;;;;;;-0.38;90.17;95203.25;5017732;28;20041;-63
2021/01/25 08:12:46;;;;;;;5.10;2.95;;;;;;;-0.22;88.64;95195.31;5014561;28;20117;-59
2021/01/25 08:15:18;;;;;;;5.75;3.00;;;;;;;-0.19;88.46;95205.44;5004722;28;20041;-59
2021/01/25 08:17:54;;;;;;;4.10;2.80;;;;;;;-0.13;88.48;95203.31;5005934;28;20033;-63
2021/01/25 08:20:23;;;;;;;3.85;2.58;;;;;;;-0.05;87.89;95203.22;5004805;28;20037;-63
2021/01/25 08:23:08;;;;;;;5.00;2.58;;;;;;;-0.14;88.26;95213.28;4987428;28;20056;-62
2021/01/25 08:25:34;;;;;;;3.50;2.60;;;;;;;-0.13;89.30;95209.47;4987916;28;20180;-61
2021/01/25 08:28:15;;;;;;;4.72;2.58;;;;;;;-0.20;89.42;95217.31;4980129;28;20121;-60
2021/01/25 08:30:43;;;;;;;3.25;2.38;;;;;;;-0.16;89.34;95220.91;5009279;28;20037;-60
2021/01/25 08:33:12;;;;;;;6.50;2.70;;;;;;;-0.36;89.58;95222.56;5019425;28;20541;-59
2021/01/25 08:35:52;;;;;;;4.38;2.42;;;;;;;-0.24;89.28;95233.34;5018651;28;20541;-57
2021/01/25 08:38:26;;;;;;;3.58;2.50;;;;;;;-0.21;88.68;95234.59;4997491;28;20124;-59
2021/01/25 08:40:55;;;;;;;4.53;2.10;;;;;;;-0.18;87.45;95233.94;5002104;28;20041;-59
2021/01/25 08:43:27;;;;;;;;;;;;;;;-0.17;87.03;95240.88;4993883;28;20065;-56
2021/01/25 08:45:54;;;;;;;3.55;2.00;;;;;;;0.03;86.49;95241.13;4998401;28;20350;-60
2021/01/25 08:48:31;;;;;;;2.33;1.60;;;;;;;-0.02;84.72;95250.19;5002538;28;20760;-58
2021/01/25 08:51:08;;;;;;;2.05;1.60;;;;;;;0.08;83.29;95255.16;5011801;28;20041;-59
2021/01/25 08:53:33;;;;;;;2.90;1.50;;;;;;;-0.03;83.02;95249.41;4986064;28;20045;-59
2021/01/25 08:55:58;;;;;;;2.33;1.35;;;;;;;0.09;81.71;95253.25;5018180;28;20045;-61
2021/01/25 08:58:30;;;;;;;1.83;1.25;;;;;;;0.10;81.94;95260.22;5017189;28;20050;-56
2021/01/25 09:00:56;;;;;;;1.40;1.02;;;;;;;0.17;81.27;95263.91;4999055;28;20579;-56
2021/01/25 09:03:23;;;;;;;2.72;1.40;;;;;;;0.21;82.07;95276.72;4995823;28;20057;-60
2021/01/25 09:05:51;;;;;;;1.90;1.20;;;;;;;0.13;82.33;95275.72;4982860;28;20042;-59
2021/01/25 09:08:17;;;;;;;3.08;1.45;;;;;;;0.13;82.49;95281.88;5001177;28;20049;-58
2021/01/25 09:10:42;;;;;;;3.13;1.77;;;;;;;0.14;83.22;95286.13;5012310;28;20037;-60
2021/01/25 09:13:07;;;;;;;3.65;2.00;;;;;;;0.14;82.97;95279.97;4992099;28;20132;-62
2021/01/25 09:15:33;;;;;;;5.53;2.30;;;;;;;0.24;84.02;95286.84;4996594;28;20663;-59
2021/01/25 09:17:58;;;;;;;3.63;1.75;;;;;;;0.24;83.46;95290.31;5006633;28;20403;-60
2021/01/25 09:20:25;;;;;;;5.70;1.70;;;;;;;0.38;82.84;95284.59;4985269;28;20526;-60
2021/01/25 09:22:51;;;;;;;2.33;1.65;;;;;;;0.35;83.76;95296.81;4996872;28;20046;-63
2021/01/25 09:25:18;;;;;;;4.13;2.20;;;;;;;0.44;82.81;95298.63;4996627;28;20042;-60
2021/01/25 09:27:43;;;;;;;5.50;2.15;;;;;;;0.50;81.63;95298.06;4983786;28;20046;-57
2021/01/25 09:30:11;;;;;;;3.70;1.73;;;;;;;0.64;81.09;95297.75;4994183;28;20548;-62
2021/01/25 09:32:37;;;;;;;3.15;1.90;;;;;;;0.56;81.05;95312.13;5011284;28;20037;-60
2021/01/25 09:35:04;;;;;;;4.43;1.98;;;;;;;0.72;81.13;95320.31;5015957;28;20199;-64
2021/01/25 09:37:30;;;;;;;1.92;1.70;;;;;;;0.83;80.10;95307.97;5010178;28;20042;-63
2021/01/25 09:39:55;;;;;;;2.20;1.75;;;;;;;0.82;80.13;95324.47;5001800;28;20038;-61
2021/01/25 09:42:20;;;;;;;1.88;1.40;;;;;;;0.99;79.19;95315.34;4977920;28;21762;-61
2021/01/25 09:44:46;;;;;;;2.38;1.50;;;;;;;0.95;80.13;95326.84;4981594;28;20196;-62
2021/01/25 09:47:12;;;;;;;4.53;1.80;;;;;;;1.26;78.91;95338.13;5001408;28;20060;-68
2021/01/25 09:49:37;;;;;;;1.85;1.40;;;;;;;1.44;77.48;95339.47;5019312;28;20053;-65
2021/01/25 09:52:03;;;;;;;2.45;1.40;;;;;;;1.02;79.38;95331.63;4998507;28;20372;-68
2021/01/25 09:54:28;;;;;;;3.92;1.88;;;;;;;0.89;79.96;95346.25;5018125;28;20124;-64
2021/01/25 09:56:54;;;;;;;2.10;1.90;;;;;;;0.86;80.48;95350.41;5023622;28;20184;-61
2021/01/25 09:59:20;;;;;;;3.92;1.23;;;;;;;0.86;79.86;95349.63;5021130;28;20053;-63
2021/01/25 10:01:45;;;;;;;2.70;1.98;;;;;;;1.19;79.07;95356.78;5008297;28;20045;-62
2021/01/25 10:04:11;;;;;;;1.60;1.30;;;;;;;1.28;77.65;95357.47;4996856;28;20048;-60
2021/01/25 10:06:37;;;;;;;2.65;1.73;;;;;;;1.13;77.49;95353.53;4998192;28;20048;-61
2021/01/25 10:09:03;;;;;;;1.80;1.45;;;;;;;1.08;78.41;95359.16;4986637;28;20510;-67
2021/01/25 10:11:29;;;;;;;3.97;1.85;;;;;;;1.30;77.20;95363.31;4994362;28;20056;-67
2021/01/25 10:13:55;;;;;;;3.53;1.75;;;;;;;1.47;75.34;95363.03;5005660;28;20065;-65
2021/01/25 10:16:20;;;;;;;2.05;1.30;;;;;;;1.49;74.83;95370.81;4992680;28;20110;-66
2021/01/25 10:18:47;;;;;;;1.38;1.23;;;;;;;1.72;73.97;95374.56;5007393;28;20049;-59
2021/01/25 10:21:13;;;;;;;4.10;1.60;;;;;;;1.79;74.36;95379.41;4988427;28;20041;-63
2021/01/25 10:23:39;;;;;;;2.28;1.65;;;;;;;1.45;74.79;95388.81;5019638;28;20140;-63
2021/01/25 10:26:04;;;;;;;2.92;1.60;;;;;;;1.64;75.36;95375.50;4996608;28;20149;-67
2021/01/25 10:28:30;;;;;;;2.20;1.23;;;;;;;1.84;73.74;95392.66;5019841;28;20647;-63
2021/01/25 10:30:56;;;;;;;2.60;1.23;;;;;;;1.91;73.17;95392.09;5019323;28;20084;-66
2021/01/25 10:33:21;;;;;;;4.30;1.40;;;;;;;1.91;72.70;95387.47;4998090;28;20054;-65
2021/01/25 10:35:47;;;;;;;2.42;1.50;;;;;;;1.99;71.78;95388.44;5012030;28;20592;-64
2021/01/25 10:38:18;;;;;;;2.30;1.23;;;;;;;2.16;73.15;95397.38;5071848;27;20380;-66
2021/01/25 10:40:43;;;;;;;4.30;1.27;;;;;;;2.29;70.88;95385.41;5078362;27;20048;-64
2021/01/25 10:43:09;;;;;;;1.88;1.10;;;;;;;2.39;72.37;95389.50;5069961;27;20040;-62
2021/01/25 10:45:35;;;;;;;7.22;2.17;;;;;;;2.12;70.62;95383.00;5077188;28;20041;-65
2021/01/25 10:48:00;;;;;;;2.90;1.50;;;;;;;2.16;71.37;95410.88;5069814;28;20111;-65
2021/01/25 10:50:27;;;;;;;4.63;2.00;;;;;;;2.10;71.43;95404.94;5090656;27;20386;-64
2021/01/25 10:52:53;;;;;;;7.75;1.88;;;;;;;2.30;70.83;95419.38;5096543;27;20067;-65
2021/01/25 10:55:19;;;;;;;4.10;1.52;;;;;;;2.62;70.19;95419.47;5088570;27;20492;-65
2021/01/25 10:57:44;;;;;;;3.53;1.15;;;;;;;2.09;70.27;95427.69;5096071;27;20044;-65
2021/01/25 11:00:14;;;;;;;2.20;1.30;;;;;;;2.46;70.00;95422.91;5086589;27;20459;-64
2021/01/25 11:02:39;;;;;;;1.75;1.20;;;;;;;2.53;68.08;95425.03;5088723;27;20071;-65
2021/01/25 11:05:09;;;;;;;1.60;1.00;;;;;;;2.24;69.68;95426.97;5092693;27;20067;-64
2021/01/25 11:07:38;;;;;;;2.95;1.20;;;;;;;1.94;68.45;95436.50;5093432;27;20044;-66
2021/01/25 11:10:10;;;;;;;1.60;1.50;;;;;;;1.85;69.82;95439.34;5092333;27;20062;-61
2021/01/25 11:12:35;;;;;;;2.83;1.30;;;;;;;1.81;70.82;95438.47;5093061;27;20976;-66
2021/01/25 11:15:01;;;;;;;3.28;1.60;;;;;;;1.84;71.31;95443.19;5096338;27;20071;-66
2021/01/25 11:17:26;;;;;;;1.13;1.05;;;;;;;1.97;69.58;95450.13;5079813;27;20609;-64
2021/01/25 11:19:52;;;;;;;1.33;1.02;;;;;;;2.09;68.35;95447.38;5095757;27;20146;-63
2021/01/25 11:22:18;;;;;;;2.75;1.25;;;;;;;1.87;69.36;95440.59;5089068;27;20419;-64
2021/01/25 11:24:43;;;;;;;3.25;1.65;;;;;;;1.59;71.00;95448.59;5095671;27;20063;-64
2021/01/25 11:27:09;;;;;;;1.30;1.05;;;;;;;1.62;71.41;95456.03;5089738;27;20039;-65
2021/01/25 11:29:35;;;;;;;6.28;1.40;;;;;;;1.56;70.99;95443.88;5095731;27;20116;-65
2021/01/25 11:32:05;;;;;;;4.45;2.58;;;;;;;1.53;71.44;95453.44;5089943;28;20044;-63
2021/01/25 11:34:31;;;;;;;5.70;2.33;;;;;;;1.56;71.33;95462.00;5079644;27;20581;-64